sensor_id;sensor_type;location;lat;lon;timestamp;P1;durP1;ratioP1;P2;durP2;ratioP2
54452;SDS011;40363;52.270;10.546;2023-09-19T00:00:05;1.48;;;0.60;;
54452;SDS011;40363;52.270;10.546;2023-09-19T00:02:38;2.05;;;0.93;;
54452;SDS011;40363;52.270;10.546;2023-09-19T00:05:05;0.95;;;0.50;;
54452;SDS011;40363;52.270;10.546;2023-09-19T00:07:34;3.05;;;0.80;;
54452;SDS011;40363;52.270;10.546;2023-09-19T00:10:02;0.98;;;0.57;;
54452;SDS011;40363;52.270;10.546;2023-09-19T00:12:29;3.22;;;1.05;;
54452;SDS011;40363;52.270;10.546;2023-09-19T00:14:58;1.38;;;0.60;;
54452;SDS011;40363;52.270;10.546;2023-09-19T00:17:26;1.40;;;0.60;;
54452;SDS011;40363;52.270;10.546;2023-09-19T00:19:55;1.85;;;0.50;;
54452;SDS011;40363;52.270;10.546;2023-09-19T00:22:22;1.05;;;0.40;;
54452;SDS011;40363;52.270;10.546;2023-09-19T00:24:51;3.42;;;0.90;;
54452;SDS011;40363;52.270;10.546;2023-09-19T00:27:18;1.52;;;0.80;;
54452;SDS011;40363;52.270;10.546;2023-09-19T00:29:45;1.58;;;0.70;;
54452;SDS011;40363;52.270;10.546;2023-09-19T00:32:13;0.95;;;0.80;;
54452;SDS011;40363;52.270;10.546;2023-09-19T00:34:39;1.45;;;0.70;;
54452;SDS011;40363;52.270;10.546;2023-09-19T00:37:07;1.48;;;0.80;;
54452;SDS011;40363;52.270;10.546;2023-09-19T00:39:36;2.67;;;0.90;;
54452;SDS011;40363;52.270;10.546;2023-09-19T00:42:03;1.70;;;0.68;;
54452;SDS011;40363;52.270;10.546;2023-09-19T00:44:30;1.88;;;0.73;;
54452;SDS011;40363;52.270;10.546;2023-09-19T00:46:56;2.75;;;1.05;;
54452;SDS011;40363;52.270;10.546;2023-09-19T00:49:25;1.38;;;0.65;;
54452;SDS011;40363;52.270;10.546;2023-09-19T00:51:52;1.73;;;0.65;;
54452;SDS011;40363;52.270;10.546;2023-09-19T00:54:19;1.10;;;0.65;;
54452;SDS011;40363;52.270;10.546;2023-09-19T00:56:46;1.17;;;0.73;;
54452;SDS011;40363;52.270;10.546;2023-09-19T00:59:14;0.88;;;0.63;;
54452;SDS011;40363;52.270;10.546;2023-09-19T01:01:41;0.73;;;0.40;;
54452;SDS011;40363;52.270;10.546;2023-09-19T01:04:10;1.48;;;0.57;;
54452;SDS011;40363;52.270;10.546;2023-09-19T01:06:38;3.33;;;0.73;;
54452;SDS011;40363;52.270;10.546;2023-09-19T01:09:05;1.17;;;0.60;;
54452;SDS011;40363;52.270;10.546;2023-09-19T01:11:33;1.02;;;0.70;;
54452;SDS011;40363;52.270;10.546;2023-09-19T01:14:06;2.00;;;0.90;;
54452;SDS011;40363;52.270;10.546;2023-09-19T01:16:42;1.17;;;0.68;;
54452;SDS011;40363;52.270;10.546;2023-09-19T01:19:26;1.35;;;0.50;;
54452;SDS011;40363;52.270;10.546;2023-09-19T01:22:16;1.25;;;0.70;;
54452;SDS011;40363;52.270;10.546;2023-09-19T01:24:54;2.60;;;0.60;;
54452;SDS011;40363;52.270;10.546;2023-09-19T01:27:49;2.13;;;0.80;;
54452;SDS011;40363;52.270;10.546;2023-09-19T01:30:32;1.85;;;0.90;;
54452;SDS011;40363;52.270;10.546;2023-09-19T01:33:02;0.80;;;0.70;;
54452;SDS011;40363;52.270;10.546;2023-09-19T01:35:31;1.92;;;0.70;;
54452;SDS011;40363;52.270;10.546;2023-09-19T01:37:59;1.40;;;0.98;;
54452;SDS011;40363;52.270;10.546;2023-09-19T01:40:26;0.57;;;0.55;;
54452;SDS011;40363;52.270;10.546;2023-09-19T01:42:53;1.27;;;0.73;;
54452;SDS011;40363;52.270;10.546;2023-09-19T01:45:26;0.90;;;0.80;;
54452;SDS011;40363;52.270;10.546;2023-09-19T01:48:07;2.00;;;0.63;;
54452;SDS011;40363;52.270;10.546;2023-09-19T01:50:47;2.75;;;0.70;;
54452;SDS011;40363;52.270;10.546;2023-09-19T01:53:22;2.10;;;1.13;;
54452;SDS011;40363;52.270;10.546;2023-09-19T01:55:53;1.48;;;1.00;;
54452;SDS011;40363;52.270;10.546;2023-09-19T01:58:27;1.63;;;0.70;;
54452;SDS011;40363;52.270;10.546;2023-09-19T02:01:03;1.48;;;0.70;;
54452;SDS011;40363;52.270;10.546;2023-09-19T02:03:31;1.77;;;0.93;;
54452;SDS011;40363;52.270;10.546;2023-09-19T02:06:00;4.18;;;1.02;;
54452;SDS011;40363;52.270;10.546;2023-09-19T02:08:28;1.73;;;0.73;;
54452;SDS011;40363;52.270;10.546;2023-09-19T02:10:58;2.35;;;0.80;;
54452;SDS011;40363;52.270;10.546;2023-09-19T02:13:25;2.90;;;1.02;;
54452;SDS011;40363;52.270;10.546;2023-09-19T02:15:53;2.28;;;0.85;;
54452;SDS011;40363;52.270;10.546;2023-09-19T02:18:22;1.20;;;0.90;;
54452;SDS011;40363;52.270;10.546;2023-09-19T02:20:48;2.35;;;1.20;;
54452;SDS011;40363;52.270;10.546;2023-09-19T02:23:16;1.05;;;0.85;;
54452;SDS011;40363;52.270;10.546;2023-09-19T02:25:43;1.70;;;1.00;;
54452;SDS011;40363;52.270;10.546;2023-09-19T02:28:17;2.33;;;1.05;;
54452;SDS011;40363;52.270;10.546;2023-09-19T02:30:47;1.15;;;0.88;;
54452;SDS011;40363;52.270;10.546;2023-09-19T02:33:13;1.50;;;0.90;;
54452;SDS011;40363;52.270;10.546;2023-09-19T02:35:41;2.50;;;0.95;;
54452;SDS011;40363;52.270;10.546;2023-09-19T02:38:08;1.80;;;0.98;;
54452;SDS011;40363;52.270;10.546;2023-09-19T02:40:37;2.55;;;1.00;;
54452;SDS011;40363;52.270;10.546;2023-09-19T02:43:04;4.57;;;1.23;;
54452;SDS011;40363;52.270;10.546;2023-09-19T02:45:32;3.25;;;0.85;;
54452;SDS011;40363;52.270;10.546;2023-09-19T02:47:58;2.05;;;0.95;;
54452;SDS011;40363;52.270;10.546;2023-09-19T02:50:25;1.77;;;1.10;;
54452;SDS011;40363;52.270;10.546;2023-09-19T02:52:53;2.88;;;0.95;;
54452;SDS011;40363;52.270;10.546;2023-09-19T02:55:20;5.53;;;1.13;;
54452;SDS011;40363;52.270;10.546;2023-09-19T02:57:47;3.30;;;1.15;;
54452;SDS011;40363;52.270;10.546;2023-09-19T03:00:15;1.85;;;1.00;;
54452;SDS011;40363;52.270;10.546;2023-09-19T03:02:46;1.10;;;0.88;;
54452;SDS011;40363;52.270;10.546;2023-09-19T03:05:13;5.60;;;1.60;;
54452;SDS011;40363;52.270;10.546;2023-09-19T03:07:40;3.22;;;1.10;;
54452;SDS011;40363;52.270;10.546;2023-09-19T03:10:09;3.08;;;1.17;;
54452;SDS011;40363;52.270;10.546;2023-09-19T03:12:36;4.93;;;1.40;;
54452;SDS011;40363;52.270;10.546;2023-09-19T03:15:05;2.05;;;1.17;;
54452;SDS011;40363;52.270;10.546;2023-09-19T03:17:33;4.15;;;1.25;;
54452;SDS011;40363;52.270;10.546;2023-09-19T03:20:00;2.47;;;1.10;;
54452;SDS011;40363;52.270;10.546;2023-09-19T03:22:27;4.47;;;1.27;;
54452;SDS011;40363;52.270;10.546;2023-09-19T03:24:54;2.67;;;1.40;;
54452;SDS011;40363;52.270;10.546;2023-09-19T03:27:22;2.20;;;1.38;;
54452;SDS011;40363;52.270;10.546;2023-09-19T03:29:49;2.83;;;1.60;;
54452;SDS011;40363;52.270;10.546;2023-09-19T03:32:15;2.40;;;1.42;;
54452;SDS011;40363;52.270;10.546;2023-09-19T03:34:42;5.43;;;1.52;;
54452;SDS011;40363;52.270;10.546;2023-09-19T03:37:09;3.40;;;1.45;;
54452;SDS011;40363;52.270;10.546;2023-09-19T03:39:36;1.88;;;1.40;;
54452;SDS011;40363;52.270;10.546;2023-09-19T03:42:03;2.25;;;1.42;;
54452;SDS011;40363;52.270;10.546;2023-09-19T03:44:33;3.40;;;1.73;;
54452;SDS011;40363;52.270;10.546;2023-09-19T03:47:00;1.77;;;1.30;;
54452;SDS011;40363;52.270;10.546;2023-09-19T03:49:26;3.13;;;1.70;;
54452;SDS011;40363;52.270;10.546;2023-09-19T03:51:53;3.33;;;1.50;;
54452;SDS011;40363;52.270;10.546;2023-09-19T03:54:20;4.97;;;1.73;;
54452;SDS011;40363;52.270;10.546;2023-09-19T03:56:46;4.07;;;1.88;;
54452;SDS011;40363;52.270;10.546;2023-09-19T03:59:13;3.70;;;1.77;;
54452;SDS011;40363;52.270;10.546;2023-09-19T04:01:42;7.40;;;1.67;;
54452;SDS011;40363;52.270;10.546;2023-09-19T04:04:08;3.35;;;1.50;;
54452;SDS011;40363;52.270;10.546;2023-09-19T04:06:35;2.78;;;1.73;;
54452;SDS011;40363;52.270;10.546;2023-09-19T04:09:02;2.83;;;1.48;;
54452;SDS011;40363;52.270;10.546;2023-09-19T04:11:32;3.88;;;1.98;;
54452;SDS011;40363;52.270;10.546;2023-09-19T04:13:58;5.88;;;1.98;;
54452;SDS011;40363;52.270;10.546;2023-09-19T04:16:25;3.17;;;1.83;;
54452;SDS011;40363;52.270;10.546;2023-09-19T04:18:53;5.57;;;2.17;;
54452;SDS011;40363;52.270;10.546;2023-09-19T04:21:20;7.75;;;1.90;;
54452;SDS011;40363;52.270;10.546;2023-09-19T04:23:46;2.72;;;1.58;;
54452;SDS011;40363;52.270;10.546;2023-09-19T04:26:13;3.33;;;2.05;;
54452;SDS011;40363;52.270;10.546;2023-09-19T04:28:41;5.15;;;2.28;;
54452;SDS011;40363;52.270;10.546;2023-09-19T04:31:09;6.43;;;2.60;;
54452;SDS011;40363;52.270;10.546;2023-09-19T04:33:36;3.70;;;1.55;;
54452;SDS011;40363;52.270;10.546;2023-09-19T04:36:04;5.03;;;2.10;;
54452;SDS011;40363;52.270;10.546;2023-09-19T04:38:32;3.40;;;2.40;;
54452;SDS011;40363;52.270;10.546;2023-09-19T04:40:59;2.88;;;2.30;;
54452;SDS011;40363;52.270;10.546;2023-09-19T04:43:26;5.47;;;3.28;;
54452;SDS011;40363;52.270;10.546;2023-09-19T04:45:53;7.35;;;2.90;;
54452;SDS011;40363;52.270;10.546;2023-09-19T04:48:20;6.53;;;3.63;;
54452;SDS011;40363;52.270;10.546;2023-09-19T04:50:49;7.68;;;2.97;;
54452;SDS011;40363;52.270;10.546;2023-09-19T04:53:17;5.95;;;3.63;;
54452;SDS011;40363;52.270;10.546;2023-09-19T04:55:45;6.53;;;3.58;;
54452;SDS011;40363;52.270;10.546;2023-09-19T04:58:16;6.35;;;3.28;;
54452;SDS011;40363;52.270;10.546;2023-09-19T05:00:42;5.80;;;2.72;;
54452;SDS011;40363;52.270;10.546;2023-09-19T05:03:09;9.98;;;3.15;;
54452;SDS011;40363;52.270;10.546;2023-09-19T05:05:36;3.35;;;2.40;;
54452;SDS011;40363;52.270;10.546;2023-09-19T05:08:04;5.22;;;2.30;;
54452;SDS011;40363;52.270;10.546;2023-09-19T05:10:32;6.57;;;2.83;;
54452;SDS011;40363;52.270;10.546;2023-09-19T05:12:59;6.60;;;3.67;;
54452;SDS011;40363;52.270;10.546;2023-09-19T05:15:26;7.20;;;2.72;;
54452;SDS011;40363;52.270;10.546;2023-09-19T05:17:52;6.13;;;2.78;;
54452;SDS011;40363;52.270;10.546;2023-09-19T05:20:19;7.50;;;3.42;;
54452;SDS011;40363;52.270;10.546;2023-09-19T05:22:50;6.68;;;2.60;;
54452;SDS011;40363;52.270;10.546;2023-09-19T05:25:16;5.38;;;2.35;;
54452;SDS011;40363;52.270;10.546;2023-09-19T05:27:45;8.02;;;2.83;;
54452;SDS011;40363;52.270;10.546;2023-09-19T05:30:11;5.90;;;3.25;;
54452;SDS011;40363;52.270;10.546;2023-09-19T05:32:40;5.63;;;2.63;;
54452;SDS011;40363;52.270;10.546;2023-09-19T05:35:08;6.20;;;2.47;;
54452;SDS011;40363;52.270;10.546;2023-09-19T05:37:38;3.78;;;2.10;;
54452;SDS011;40363;52.270;10.546;2023-09-19T05:40:05;4.93;;;2.72;;
54452;SDS011;40363;52.270;10.546;2023-09-19T05:42:35;4.43;;;2.00;;
54452;SDS011;40363;52.270;10.546;2023-09-19T05:45:04;5.70;;;2.95;;
54452;SDS011;40363;52.270;10.546;2023-09-19T05:47:32;4.80;;;1.98;;
54452;SDS011;40363;52.270;10.546;2023-09-19T05:49:59;6.07;;;3.17;;
54452;SDS011;40363;52.270;10.546;2023-09-19T05:52:26;3.92;;;2.30;;
54452;SDS011;40363;52.270;10.546;2023-09-19T05:54:52;6.15;;;2.53;;
54452;SDS011;40363;52.270;10.546;2023-09-19T05:57:19;4.65;;;2.72;;
54452;SDS011;40363;52.270;10.546;2023-09-19T05:59:47;6.85;;;2.40;;
54452;SDS011;40363;52.270;10.546;2023-09-19T06:02:17;4.57;;;2.50;;
54452;SDS011;40363;52.270;10.546;2023-09-19T06:04:45;7.28;;;2.60;;
54452;SDS011;40363;52.270;10.546;2023-09-19T06:07:11;6.15;;;3.08;;
54452;SDS011;40363;52.270;10.546;2023-09-19T06:09:38;5.00;;;2.63;;
54452;SDS011;40363;52.270;10.546;2023-09-19T06:12:05;9.40;;;3.17;;
54452;SDS011;40363;52.270;10.546;2023-09-19T06:14:32;5.20;;;2.88;;
54452;SDS011;40363;52.270;10.546;2023-09-19T06:16:59;10.25;;;3.00;;
54452;SDS011;40363;52.270;10.546;2023-09-19T06:19:27;3.72;;;2.47;;
54452;SDS011;40363;52.270;10.546;2023-09-19T06:21:53;7.97;;;2.70;;
54452;SDS011;40363;52.270;10.546;2023-09-19T06:24:20;4.03;;;2.60;;
54452;SDS011;40363;52.270;10.546;2023-09-19T06:26:46;8.85;;;3.60;;
54452;SDS011;40363;52.270;10.546;2023-09-19T06:29:14;5.68;;;2.78;;
54452;SDS011;40363;52.270;10.546;2023-09-19T06:31:41;5.50;;;2.85;;
54452;SDS011;40363;52.270;10.546;2023-09-19T06:34:09;11.55;;;3.67;;
54452;SDS011;40363;52.270;10.546;2023-09-19T06:36:37;7.47;;;2.75;;
54452;SDS011;40363;52.270;10.546;2023-09-19T06:39:04;4.40;;;2.30;;
54452;SDS011;40363;52.270;10.546;2023-09-19T06:41:31;5.15;;;2.60;;
54452;SDS011;40363;52.270;10.546;2023-09-19T06:43:58;5.68;;;2.40;;
54452;SDS011;40363;52.270;10.546;2023-09-19T06:46:25;4.60;;;2.08;;
54452;SDS011;40363;52.270;10.546;2023-09-19T06:48:57;5.40;;;2.50;;
54452;SDS011;40363;52.270;10.546;2023-09-19T06:51:24;7.20;;;2.67;;
54452;SDS011;40363;52.270;10.546;2023-09-19T06:53:52;9.20;;;3.05;;
54452;SDS011;40363;52.270;10.546;2023-09-19T06:56:19;4.38;;;2.25;;
54452;SDS011;40363;52.270;10.546;2023-09-19T06:58:49;9.10;;;2.63;;
54452;SDS011;40363;52.270;10.546;2023-09-19T07:01:16;7.50;;;2.58;;
54452;SDS011;40363;52.270;10.546;2023-09-19T07:03:43;8.15;;;2.65;;
54452;SDS011;40363;52.270;10.546;2023-09-19T07:06:10;4.78;;;2.50;;
54452;SDS011;40363;52.270;10.546;2023-09-19T07:08:37;8.43;;;2.80;;
54452;SDS011;40363;52.270;10.546;2023-09-19T07:11:06;5.70;;;2.13;;
54452;SDS011;40363;52.270;10.546;2023-09-19T07:13:32;7.82;;;2.38;;
54452;SDS011;40363;52.270;10.546;2023-09-19T07:15:59;3.85;;;1.80;;
54452;SDS011;40363;52.270;10.546;2023-09-19T07:18:25;8.05;;;2.75;;
54452;SDS011;40363;52.270;10.546;2023-09-19T07:20:56;5.78;;;1.90;;
54452;SDS011;40363;52.270;10.546;2023-09-19T07:23:26;8.00;;;2.10;;
54452;SDS011;40363;52.270;10.546;2023-09-19T07:25:56;4.55;;;1.67;;
54452;SDS011;40363;52.270;10.546;2023-09-19T07:28:25;4.63;;;1.98;;
54452;SDS011;40363;52.270;10.546;2023-09-19T07:30:53;6.47;;;1.90;;
54452;SDS011;40363;52.270;10.546;2023-09-19T07:33:20;6.63;;;1.95;;
54452;SDS011;40363;52.270;10.546;2023-09-19T07:35:46;5.95;;;1.88;;
54452;SDS011;40363;52.270;10.546;2023-09-19T07:38:13;9.20;;;1.70;;
54452;SDS011;40363;52.270;10.546;2023-09-19T07:40:40;6.22;;;1.67;;
54452;SDS011;40363;52.270;10.546;2023-09-19T07:43:07;6.40;;;1.95;;
54452;SDS011;40363;52.270;10.546;2023-09-19T07:45:35;6.05;;;1.90;;
54452;SDS011;40363;52.270;10.546;2023-09-19T07:48:02;5.38;;;1.70;;
54452;SDS011;40363;52.270;10.546;2023-09-19T07:50:33;12.95;;;2.40;;
54452;SDS011;40363;52.270;10.546;2023-09-19T07:53:01;5.53;;;1.73;;
54452;SDS011;40363;52.270;10.546;2023-09-19T07:55:30;8.55;;;1.77;;
54452;SDS011;40363;52.270;10.546;2023-09-19T07:57:58;7.90;;;1.70;;
54452;SDS011;40363;52.270;10.546;2023-09-19T08:00:25;5.85;;;1.73;;
54452;SDS011;40363;52.270;10.546;2023-09-19T08:02:53;3.97;;;1.60;;
54452;SDS011;40363;52.270;10.546;2023-09-19T08:05:20;4.63;;;1.80;;
54452;SDS011;40363;52.270;10.546;2023-09-19T08:07:47;7.38;;;1.95;;
54452;SDS011;40363;52.270;10.546;2023-09-19T08:10:14;4.45;;;1.67;;
54452;SDS011;40363;52.270;10.546;2023-09-19T08:12:45;5.60;;;1.77;;
54452;SDS011;40363;52.270;10.546;2023-09-19T08:15:13;7.90;;;1.83;;
54452;SDS011;40363;52.270;10.546;2023-09-19T08:17:40;3.92;;;1.80;;
54452;SDS011;40363;52.270;10.546;2023-09-19T08:20:09;8.63;;;1.80;;
54452;SDS011;40363;52.270;10.546;2023-09-19T08:22:41;5.00;;;1.30;;
54452;SDS011;40363;52.270;10.546;2023-09-19T08:25:09;5.30;;;1.30;;
54452;SDS011;40363;52.270;10.546;2023-09-19T08:27:35;7.10;;;1.75;;
54452;SDS011;40363;52.270;10.546;2023-09-19T08:30:02;5.57;;;1.60;;
54452;SDS011;40363;52.270;10.546;2023-09-19T08:32:29;5.50;;;1.65;;
54452;SDS011;40363;52.270;10.546;2023-09-19T08:34:56;3.45;;;1.48;;
54452;SDS011;40363;52.270;10.546;2023-09-19T08:37:24;3.15;;;1.35;;
54452;SDS011;40363;52.270;10.546;2023-09-19T08:39:50;11.27;;;1.73;;
54452;SDS011;40363;52.270;10.546;2023-09-19T08:42:17;5.30;;;1.38;;
54452;SDS011;40363;52.270;10.546;2023-09-19T08:44:46;5.18;;;1.65;;
54452;SDS011;40363;52.270;10.546;2023-09-19T08:47:14;6.43;;;1.75;;
54452;SDS011;40363;52.270;10.546;2023-09-19T08:49:47;4.03;;;1.25;;
54452;SDS011;40363;52.270;10.546;2023-09-19T08:52:27;4.22;;;1.45;;
54452;SDS011;40363;52.270;10.546;2023-09-19T08:54:59;6.05;;;1.42;;
54452;SDS011;40363;52.270;10.546;2023-09-19T08:57:29;5.13;;;1.50;;
54452;SDS011;40363;52.270;10.546;2023-09-19T09:00:01;6.28;;;1.52;;
54452;SDS011;40363;52.270;10.546;2023-09-19T09:02:31;5.75;;;1.88;;
54452;SDS011;40363;52.270;10.546;2023-09-19T09:04:59;5.20;;;1.08;;
54452;SDS011;40363;52.270;10.546;2023-09-19T09:07:29;7.10;;;1.88;;
54452;SDS011;40363;52.270;10.546;2023-09-19T09:09:55;3.85;;;1.20;;
54452;SDS011;40363;52.270;10.546;2023-09-19T09:12:22;6.75;;;1.33;;
54452;SDS011;40363;52.270;10.546;2023-09-19T09:14:50;6.57;;;1.52;;
54452;SDS011;40363;52.270;10.546;2023-09-19T09:17:17;5.95;;;1.42;;
54452;SDS011;40363;52.270;10.546;2023-09-19T09:19:45;9.90;;;1.65;;
54452;SDS011;40363;52.270;10.546;2023-09-19T09:22:12;4.45;;;1.27;;
54452;SDS011;40363;52.270;10.546;2023-09-19T09:24:51;9.18;;;1.55;;
54452;SDS011;40363;52.270;10.546;2023-09-19T09:27:19;7.13;;;1.50;;
54452;SDS011;40363;52.270;10.546;2023-09-19T09:29:49;4.47;;;1.55;;
54452;SDS011;40363;52.270;10.546;2023-09-19T09:32:16;4.82;;;1.00;;
54452;SDS011;40363;52.270;10.546;2023-09-19T09:34:48;7.20;;;1.33;;
54452;SDS011;40363;52.270;10.546;2023-09-19T09:37:16;3.97;;;1.42;;
54452;SDS011;40363;52.270;10.546;2023-09-19T09:39:48;3.05;;;1.23;;
54452;SDS011;40363;52.270;10.546;2023-09-19T09:42:21;5.35;;;1.60;;
54452;SDS011;40363;52.270;10.546;2023-09-19T09:45:08;4.53;;;1.40;;
54452;SDS011;40363;52.270;10.546;2023-09-19T09:47:42;3.75;;;1.25;;
54452;SDS011;40363;52.270;10.546;2023-09-19T09:50:23;4.20;;;1.25;;
54452;SDS011;40363;52.270;10.546;2023-09-19T09:53:05;3.28;;;1.13;;
54452;SDS011;40363;52.270;10.546;2023-09-19T09:55:59;5.25;;;1.38;;
54452;SDS011;40363;52.270;10.546;2023-09-19T09:58:29;6.72;;;1.58;;
54452;SDS011;40363;52.270;10.546;2023-09-19T10:00:56;6.32;;;1.10;;
54452;SDS011;40363;52.270;10.546;2023-09-19T10:03:33;5.70;;;1.40;;
54452;SDS011;40363;52.270;10.546;2023-09-19T10:06:08;2.30;;;1.20;;
54452;SDS011;40363;52.270;10.546;2023-09-19T10:09:03;8.38;;;1.55;;
54452;SDS011;40363;52.270;10.546;2023-09-19T10:11:38;5.40;;;1.00;;
54452;SDS011;40363;52.270;10.546;2023-09-19T10:14:09;4.47;;;1.35;;
54452;SDS011;40363;52.270;10.546;2023-09-19T10:16:37;6.43;;;1.42;;
54452;SDS011;40363;52.270;10.546;2023-09-19T10:19:07;7.88;;;1.30;;
54452;SDS011;40363;52.270;10.546;2023-09-19T10:21:35;3.65;;;1.38;;
54452;SDS011;40363;52.270;10.546;2023-09-19T10:24:03;4.45;;;1.67;;
54452;SDS011;40363;52.270;10.546;2023-09-19T10:26:34;4.32;;;1.35;;
54452;SDS011;40363;52.270;10.546;2023-09-19T10:29:01;2.50;;;1.13;;
54452;SDS011;40363;52.270;10.546;2023-09-19T10:31:33;4.15;;;1.45;;
54452;SDS011;40363;52.270;10.546;2023-09-19T10:34:05;4.10;;;1.58;;
54452;SDS011;40363;52.270;10.546;2023-09-19T10:36:35;5.90;;;1.60;;
54452;SDS011;40363;52.270;10.546;2023-09-19T10:39:03;2.15;;;1.35;;
54452;SDS011;40363;52.270;10.546;2023-09-19T10:41:32;5.85;;;1.73;;
54452;SDS011;40363;52.270;10.546;2023-09-19T10:44:02;4.00;;;0.90;;
54452;SDS011;40363;52.270;10.546;2023-09-19T10:46:31;4.93;;;1.30;;
54452;SDS011;40363;52.270;10.546;2023-09-19T10:49:00;6.22;;;1.33;;
54452;SDS011;40363;52.270;10.546;2023-09-19T10:51:28;3.05;;;1.08;;
54452;SDS011;40363;52.270;10.546;2023-09-19T10:53:59;5.80;;;1.67;;
54452;SDS011;40363;52.270;10.546;2023-09-19T10:56:32;4.63;;;1.33;;
54452;SDS011;40363;52.270;10.546;2023-09-19T10:59:06;5.32;;;1.38;;
54452;SDS011;40363;52.270;10.546;2023-09-19T11:01:44;3.25;;;1.50;;
54452;SDS011;40363;52.270;10.546;2023-09-19T11:04:24;5.88;;;1.10;;
54452;SDS011;40363;52.270;10.546;2023-09-19T11:07:04;6.40;;;1.42;;
54452;SDS011;40363;52.270;10.546;2023-09-19T11:09:43;5.32;;;1.67;;
54452;SDS011;40363;52.270;10.546;2023-09-19T11:12:12;9.32;;;2.40;;
54452;SDS011;40363;52.270;10.546;2023-09-19T11:14:41;5.30;;;1.60;;
54452;SDS011;40363;52.270;10.546;2023-09-19T11:20:21;3.75;;;1.25;;
54452;SDS011;40363;52.270;10.546;2023-09-19T11:23:19;8.80;;;1.70;;
54452;SDS011;40363;52.270;10.546;2023-09-19T11:25:52;3.75;;;1.15;;
54452;SDS011;40363;52.270;10.546;2023-09-19T11:28:34;4.80;;;1.45;;
54452;SDS011;40363;52.270;10.546;2023-09-19T11:37:16;4.38;;;1.45;;
54452;SDS011;40363;52.270;10.546;2023-09-19T11:40:44;6.95;;;1.42;;
54452;SDS011;40363;52.270;10.546;2023-09-19T11:43:32;4.45;;;1.30;;
54452;SDS011;40363;52.270;10.546;2023-09-19T11:46:04;5.47;;;1.70;;
54452;SDS011;40363;52.270;10.546;2023-09-19T11:48:31;4.78;;;1.50;;
54452;SDS011;40363;52.270;10.546;2023-09-19T11:51:00;4.57;;;1.52;;
54452;SDS011;40363;52.270;10.546;2023-09-19T11:53:33;6.10;;;1.42;;
54452;SDS011;40363;52.270;10.546;2023-09-19T11:56:01;3.28;;;1.50;;
54452;SDS011;40363;52.270;10.546;2023-09-19T11:58:32;4.32;;;1.60;;
54452;SDS011;40363;52.270;10.546;2023-09-19T12:00:59;8.65;;;1.50;;
54452;SDS011;40363;52.270;10.546;2023-09-19T12:03:29;5.00;;;1.77;;
54452;SDS011;40363;52.270;10.546;2023-09-19T12:05:57;8.52;;;1.80;;
54452;SDS011;40363;52.270;10.546;2023-09-19T12:08:24;8.18;;;1.95;;
54452;SDS011;40363;52.270;10.546;2023-09-19T12:10:53;4.15;;;1.90;;
54452;SDS011;40363;52.270;10.546;2023-09-19T12:13:20;4.40;;;1.40;;
54452;SDS011;40363;52.270;10.546;2023-09-19T12:15:47;7.35;;;1.65;;
54452;SDS011;40363;52.270;10.546;2023-09-19T12:18:26;8.88;;;2.00;;
54452;SDS011;40363;52.270;10.546;2023-09-19T12:20:54;5.35;;;1.52;;
54452;SDS011;40363;52.270;10.546;2023-09-19T12:23:23;5.25;;;1.40;;
54452;SDS011;40363;52.270;10.546;2023-09-19T12:25:50;3.22;;;1.33;;
54452;SDS011;40363;52.270;10.546;2023-09-19T12:28:20;5.20;;;2.25;;
54452;SDS011;40363;52.270;10.546;2023-09-19T12:30:47;4.72;;;1.48;;
54452;SDS011;40363;52.270;10.546;2023-09-19T12:33:15;6.05;;;1.55;;
54452;SDS011;40363;52.270;10.546;2023-09-19T12:35:44;6.57;;;1.90;;
54452;SDS011;40363;52.270;10.546;2023-09-19T12:38:21;6.10;;;1.60;;
54452;SDS011;40363;52.270;10.546;2023-09-19T12:40:49;6.40;;;1.77;;
54452;SDS011;40363;52.270;10.546;2023-09-19T12:43:17;6.45;;;1.80;;
54452;SDS011;40363;52.270;10.546;2023-09-19T12:45:45;7.53;;;2.03;;
54452;SDS011;40363;52.270;10.546;2023-09-19T12:48:22;5.63;;;1.90;;
54452;SDS011;40363;52.270;10.546;2023-09-19T12:51:00;5.25;;;1.85;;
54452;SDS011;40363;52.270;10.546;2023-09-19T12:53:30;4.20;;;1.27;;
54452;SDS011;40363;52.270;10.546;2023-09-19T12:55:59;7.07;;;1.52;;
54452;SDS011;40363;52.270;10.546;2023-09-19T12:58:26;3.17;;;1.33;;
54452;SDS011;40363;52.270;10.546;2023-09-19T13:00:54;3.17;;;1.48;;
54452;SDS011;40363;52.270;10.546;2023-09-19T13:03:24;6.38;;;1.70;;
54452;SDS011;40363;52.270;10.546;2023-09-19T13:05:53;4.70;;;2.10;;
54452;SDS011;40363;52.270;10.546;2023-09-19T13:08:23;6.88;;;2.15;;
54452;SDS011;40363;52.270;10.546;2023-09-19T13:11:06;5.40;;;1.65;;
54452;SDS011;40363;52.270;10.546;2023-09-19T13:13:39;4.32;;;1.30;;
54452;SDS011;40363;52.270;10.546;2023-09-19T13:16:10;8.63;;;3.05;;
54452;SDS011;40363;52.270;10.546;2023-09-19T13:18:43;7.43;;;1.65;;
54452;SDS011;40363;52.270;10.546;2023-09-19T13:21:11;4.68;;;2.05;;
54452;SDS011;40363;52.270;10.546;2023-09-19T13:23:41;8.48;;;1.50;;
54452;SDS011;40363;52.270;10.546;2023-09-19T13:26:08;5.63;;;1.50;;
54452;SDS011;40363;52.270;10.546;2023-09-19T13:28:37;3.45;;;1.65;;
54452;SDS011;40363;52.270;10.546;2023-09-19T13:31:04;7.25;;;1.92;;
54452;SDS011;40363;52.270;10.546;2023-09-19T13:33:33;4.35;;;1.70;;
54452;SDS011;40363;52.270;10.546;2023-09-19T13:36:00;5.78;;;1.95;;
54452;SDS011;40363;52.270;10.546;2023-09-19T13:38:27;3.35;;;1.20;;
54452;SDS011;40363;52.270;10.546;2023-09-19T13:40:54;4.85;;;1.50;;
54452;SDS011;40363;52.270;10.546;2023-09-19T13:43:21;4.38;;;1.27;;
54452;SDS011;40363;52.270;10.546;2023-09-19T13:45:47;5.32;;;1.75;;
54452;SDS011;40363;52.270;10.546;2023-09-19T13:48:15;6.80;;;1.38;;
54452;SDS011;40363;52.270;10.546;2023-09-19T13:50:48;3.45;;;1.33;;
54452;SDS011;40363;52.270;10.546;2023-09-19T13:53:15;5.07;;;2.13;;
54452;SDS011;40363;52.270;10.546;2023-09-19T13:55:43;5.05;;;1.30;;
54452;SDS011;40363;52.270;10.546;2023-09-19T13:58:09;4.32;;;1.20;;
54452;SDS011;40363;52.270;10.546;2023-09-19T14:00:37;6.65;;;1.60;;
54452;SDS011;40363;52.270;10.546;2023-09-19T14:03:04;4.25;;;1.70;;
54452;SDS011;40363;52.270;10.546;2023-09-19T14:05:31;3.65;;;1.30;;
54452;SDS011;40363;52.270;10.546;2023-09-19T14:07:59;7.25;;;1.60;;
54452;SDS011;40363;52.270;10.546;2023-09-19T14:10:26;5.82;;;1.52;;
54452;SDS011;40363;52.270;10.546;2023-09-19T14:12:55;3.05;;;1.75;;
54452;SDS011;40363;52.270;10.546;2023-09-19T14:15:22;3.95;;;2.03;;
54452;SDS011;40363;52.270;10.546;2023-09-19T14:17:54;5.53;;;1.70;;
54452;SDS011;40363;52.270;10.546;2023-09-19T14:20:21;4.60;;;1.60;;
54452;SDS011;40363;52.270;10.546;2023-09-19T14:22:48;6.60;;;1.83;;
54452;SDS011;40363;52.270;10.546;2023-09-19T14:25:16;6.13;;;2.03;;
54452;SDS011;40363;52.270;10.546;2023-09-19T14:27:42;4.47;;;1.25;;
54452;SDS011;40363;52.270;10.546;2023-09-19T14:30:09;4.00;;;1.92;;
54452;SDS011;40363;52.270;10.546;2023-09-19T14:32:37;5.00;;;1.70;;
54452;SDS011;40363;52.270;10.546;2023-09-19T14:35:04;6.40;;;1.77;;
54452;SDS011;40363;52.270;10.546;2023-09-19T14:37:31;5.82;;;1.50;;
54452;SDS011;40363;52.270;10.546;2023-09-19T14:39:58;4.65;;;1.83;;
54452;SDS011;40363;52.270;10.546;2023-09-19T14:42:26;5.50;;;1.67;;
54452;SDS011;40363;52.270;10.546;2023-09-19T14:44:53;4.68;;;1.40;;
54452;SDS011;40363;52.270;10.546;2023-09-19T14:47:20;4.90;;;1.30;;
54452;SDS011;40363;52.270;10.546;2023-09-19T14:49:48;3.60;;;1.48;;
54452;SDS011;40363;52.270;10.546;2023-09-19T14:52:15;6.43;;;1.55;;
54452;SDS011;40363;52.270;10.546;2023-09-19T14:54:41;7.75;;;1.80;;